Cebollita Spring, Valles Caldera, New Mexico Weather observations

Data are for 10 minute period ending at time listed.
 Day   Time   Solar   Ave.   Ave.  Ave.  Vector  Max.   Baro.   Total    
  of    of     Rad.   Air    Rel.  Wind   Wind   Wind  Press.  Precip.   
Year   Day            Temp.  Hum.  Speed  Dir.   Gust                    
2014   (MST)  Kw/m2    F      %     mph   deg.    mph    mb.     in.     
-------------------------------------------------------------------------
 264    4:30   0.00   52.9    94    1.9   158     4.2   99999.0    0.00 
 264    4:40   0.00   52.9    94    1.8   152     7.2   99999.0    0.00 
 264    4:50   0.00   52.7    93    1.2   177     3.6   99999.0    0.00 
 264    5:00   0.00   52.7    95    0.9   138     3.0   99999.0    0.00 
 264    5:10   0.00   52.2    95    0.9   154     2.4   99999.0    0.00 
 264    5:20   0.00   51.8    96    1.8   159     3.6   99999.0    0.00 
 264    5:30   0.00   51.6    96    1.3   155     3.3   99999.0    0.00 
 264    5:40   0.00   51.4    97    1.3   192     5.4   99999.0    0.00 
 264    5:50   0.00   51.4    97    0.9   169     3.0   99999.0    0.00 
 264    6:00   0.00   51.2    98    0.8   180     3.6   99999.0    0.00 
 264    6:10   0.01   50.6    97    0.0     0     0.0   99999.0    0.00 
 264    6:20   0.03   49.9    97    0.5   193     2.4   99999.0    0.00 
 264    6:30   0.04   49.6    97    0.0     0     0.0   99999.0    0.00 
 264    6:40   0.08   51.0    98    1.3   155     4.2   99999.0    0.00 
 264    6:50   0.21   52.5    98    2.0   171     6.0   99999.0    0.00 
 264    7:00   0.19   53.8    98    2.1   161     7.2   99999.0    0.00 
 264    7:10   0.21   55.2    92    2.9   163     5.4   99999.0    0.00 
 264    7:20   0.20   56.2    87    3.2   146     7.8   99999.0    0.00 
 264    7:30   0.28   56.8    84    3.8   154    10.8   99999.0    0.00 
 264    7:40   0.36   57.5    80    5.5   133    12.5   99999.0    0.00 
 264    7:50   0.35   58.1    79    4.9   146     9.0   99999.0    0.00 
 264    8:00   0.36   58.4    77    5.7   142    11.3   99999.0    0.00 
 264    8:10   0.29   58.5    76    4.5   145    10.2   99999.0    0.00 
 264    8:20   0.35   59.0    74    5.3   136    10.8   99999.0    0.00 
 264    8:30   0.29   59.5    73    5.4   119    11.9   99999.0    0.00 
 264    8:40   0.24   59.6    71    5.3   135    11.9   99999.0    0.00 
 264    8:50   0.19   59.6    72    3.6   128     9.6   99999.0    0.00 
 264    9:00   0.27   60.0    69    5.4   136    12.5   99999.0    0.00 
 264    9:10   0.25   60.4    66    6.0   135    12.5   99999.0    0.00 
 264    9:20   0.39   61.4    64    5.8   128    13.7   99999.0    0.00 
 264    9:30   0.54   62.0    61    7.2   133    16.1   99999.0    0.00 
 264    9:40   0.67   63.2    57    8.3   145    17.9   99999.0    0.00 
 264    9:50   0.80   64.0    53   10.4   132    17.9   99999.0    0.00 
 264   10:00   0.74   65.1    52    7.4   139    15.5   99999.0    0.00 
 264   10:10   0.73   65.1    52    7.2   143    16.1   99999.0    0.00 
 264   10:20   0.76   66.6    50    6.7   149    20.3   99999.0    0.00 
 264   10:30   0.69   66.3    52    6.9   138    18.5   99999.0    0.00 
 264   10:40   0.59   65.1    52    7.7   134    16.1   99999.0    0.00 
 264   10:50   0.85   66.7    48    7.4   122    16.1   99999.0    0.00 
 264   11:00   1.01   68.6    45    6.9   131    19.7   99999.0    0.00 
 264   11:10   0.52   67.6    45    8.1   106    17.3   99999.0    0.00 
 264   11:20   0.99   67.5    44    6.9   144    17.9   99999.0    0.00 
 264   11:30   1.02   69.1    39    8.6   140    16.7   99999.0    0.00 
 264   11:40   0.79   69.4    37    9.5   120    25.0   99999.0    0.00 
 264   11:50   0.95   69.3    34    7.6   121    17.3   99999.0    0.00 
 264   12:00   0.55   68.6    36    7.9   131    14.9   99999.0    0.00 
 264   12:10   0.73   67.9    38    6.7   118    16.1   99999.0    0.00 
 264   12:20   0.74   70.6    35    6.2   108    16.7   99999.0    0.00 
 264   12:30   0.56   68.4    38    4.5   113    10.8   99999.0    0.00 
 264   12:40   0.71   69.5    37    7.6   149    18.5   99999.0    0.00 
 264   12:50   1.02   70.7    35    8.5   141    17.9   99999.0    0.00 
 264   13:00   1.04   71.6    34    7.7   140    19.1   99999.0    0.00 
 264   13:10   1.03   72.2    33    9.5   154    18.5   99999.0    0.00 
 264   13:20   0.53   69.8    36    7.4   147    15.5   99999.0    0.00 
 264   13:30   0.64   71.0    35    6.4   141    12.5   99999.0    0.00 
 264   13:40   0.79   71.7    33    6.1   159    16.7   99999.0    0.00 
 264   13:50   0.90   71.5    34    8.8   162    18.5   99999.0    0.00 
 264   14:00   0.56   71.5    33    7.1   150    16.1   99999.0    0.00 
 264   14:10   0.21   68.8    37    6.3   154    12.5   99999.0    0.00 
 264   14:20   0.62   69.5    36    6.2   140    10.5   99999.0    0.00 
 264   14:30   0.26   69.7    36    6.6   128    13.1   99999.0    0.00 
 264   14:40   0.29   68.6    39    6.1   137    14.3   99999.0    0.00 
 264   14:50   0.24   67.7    40    6.7   142    12.5   99999.0    0.00 
 264   15:00   0.24   67.5    41    6.7   142    12.5   99999.0    0.00 
 264   15:10   0.24   67.4    42    6.6   138    14.3   99999.0    0.00 
 264   15:20   0.26   67.4    42    6.6   135    13.1   99999.0    0.00 
 264   15:30   0.41   67.5    42    5.8   128    11.9   99999.0    0.00 
 264   15:40   0.60   71.0    37    6.3   138    11.3   99999.0    0.00 
 264   15:50   0.53   71.0    36    7.2   135    15.5   99999.0    0.00 
 264   16:00   0.42   70.6    37    6.4   145    12.5   99999.0    0.00 
 264   16:10   0.21   68.2    40    7.3   131    14.9   99999.0    0.00 
 264   16:20   0.18   67.1    42    5.6   137    12.5   99999.0    0.00 
 264   16:30   0.11   66.3    42    6.1   138    10.8   99999.0    0.00 
 264   16:40   0.09   65.5    42    5.8   141    13.7   99999.0    0.00 
 264   16:50   0.09   65.4    43    4.6   140     9.0   99999.0    0.00 
 264   17:00   0.07   65.6    44    5.3   144    13.1   99999.0    0.00 
 264   17:10   0.04   65.2    45    5.1   153    12.5   99999.0    0.00 
 264   17:20   0.02   64.7    46    5.4   154    11.9   99999.0    0.00 
 264   17:30   0.01   64.4    48    3.9   157     9.0   99999.0    0.00 
 264   17:40   0.02   63.9    52    5.0   148    13.1   99999.0    0.00 
 264   17:50   0.01   63.4    54    5.3   144    13.7   99999.0    0.00 
 264   18:00   0.00   62.9    55    4.5   156    13.7   99999.0    0.00 
 264   18:10   0.00   62.5    56    5.9   151    13.1   99999.0    0.00 
 264   18:20   0.00   62.3    58    5.4   154    11.3   99999.0    0.00 
 264   18:30   0.00   61.9    61    4.5   149     9.6   99999.0    0.00 
 264   18:40   0.00   61.6    63    6.0   152    13.7   99999.0    0.00 
 264   18:50   0.00   61.3    65    4.6   153    10.2   99999.0    0.00 
 264   19:00   0.00   59.1    79    3.2   184     7.2   99999.0    0.00 
 264   19:10   0.00   57.2    85    2.8   188     7.2   99999.0    0.01 
 264   19:20   0.00   56.5    88    2.8   178     7.8   99999.0    0.00 
 264   19:30   0.00   56.3    88    4.4   140    10.2   99999.0    0.00 
 264   19:40   0.00   56.4    85    5.0   142    13.1   99999.0    0.00 
 264   19:50   0.00   56.9    82    4.8   151    11.7   99999.0    0.00 
 264   20:00   0.00   57.1    81    4.2   145    11.3   99999.0    0.00 
 264   20:10   0.00   57.1    81    5.9   126    11.3   99999.0    0.00 
 264   20:20   0.00   57.0    82    5.6   124    10.8   99999.0    0.00 
 264   20:30   0.00   56.1    87    3.6   130    11.3   99999.0    0.01 
 264   20:40   0.00   55.6    88    4.5   117    11.3   99999.0    0.00 
 264   20:50   0.00   55.5    88    2.4   109     4.8   99999.0    0.00 
 264   21:00   0.00   55.7    86    4.1   114     6.6   99999.0    0.00 
 264   21:10   0.00   56.0    84    3.5   135     8.4   99999.0    0.00 
 264   21:20   0.00   56.2    82    5.3   136    10.8   99999.0    0.00 
 264   21:30   0.00   56.4    79    5.6   137    11.3   99999.0    0.00 
 264   21:40   0.00   56.5    79    4.4   120    10.8   99999.0    0.00 
 264   21:50   0.00   56.5    78    5.2   118    11.3   99999.0    0.00 
 264   22:00   0.00   56.4    78    3.6   126     7.8   99999.0    0.00 
 264   22:10   0.00   56.2    78    3.2   130     6.6   99999.0    0.00 
 264   22:20   0.00   56.2    78    3.9   132     8.4   99999.0    0.00 
 264   22:30   0.00   56.1    79    3.2   127     7.8   99999.0    0.00 
 264   22:40   0.00   56.0    79    4.3   137    11.9   99999.0    0.00 
 264   22:50   0.00   56.0    80    5.4   127    12.5   99999.0    0.00 
 264   23:00   0.00   56.1    80    5.6   141     9.6   99999.0    0.00 
 264   23:10   0.00   56.1    81    4.9   139    10.8   99999.0    0.00 
 264   23:20   0.00   56.1    81    4.8   125    11.3   99999.0    0.00 
 264   23:30   0.00   56.1    81    4.0   130     9.0   99999.0    0.00 
 264   23:40   0.00   55.8    81    4.6   118    10.2   99999.0    0.00 
 264   23:50   0.00   55.3    82    2.8   134     7.2   99999.0    0.00 
 265    0:00   0.00   55.0    82    3.2   118     9.0   99999.0    0.00 
 265    0:10   0.00   54.7    82    3.2   108     7.8   99999.0    0.00 
 265    0:20   0.00   54.4    82    3.7   113     8.4   99999.0    0.00 
 265    0:30   0.00   54.2    83    3.5   119    11.3   99999.0    0.00 
 265    0:40   0.00   53.9    83    4.1   116    10.2   99999.0    0.00 
 265    0:50   0.00   54.0    84    2.7   120     7.8   99999.0    0.00 
 265    1:00   0.00   53.8    84    2.4   133     6.0   99999.0    0.00 
 265    1:10   0.00   53.5    84    3.0   136     6.0   99999.0    0.00 
 265    1:20   0.00   53.1    85    3.7   117     9.0   99999.0    0.00 
 265    1:30   0.00   53.0    84    2.9   128     9.6   99999.0    0.00 
 265    1:40   0.00   52.9    85    3.5   142     6.6   99999.0    0.00 
 265    1:50   0.00   52.8    86    2.7   128     6.0   99999.0    0.00 
 265    2:00   0.00   52.6    87    2.2   103     6.0   99999.0    0.00 
 265    2:10   0.00   52.1    88    2.0    95     6.6   99999.0    0.00 
 265    2:20   0.00   51.5    89    1.0   120     3.6   99999.0    0.00 
 265    2:30   0.00   50.5    91    0.5   210     2.4   99999.0    0.00 
 265    2:40   0.00   49.8    93    0.1   162     1.8   99999.0    0.00 
 265    2:50   0.00   49.1    94    1.8    88     4.8   99999.0    0.00 
 265    3:00   0.00   48.8    95    1.1   108     4.8   99999.0    0.00 
 265    3:10   0.00   49.6    96    1.7    97     6.0   99999.0    0.00 
 265    3:20   0.00   50.5    94    2.4   109     4.8   99999.0    0.00 
 265    3:30   0.00   51.3    91    3.1   117    10.2   99999.0    0.00 
 265    3:40   0.00   52.4    88    3.0   122     7.8   99999.0    0.00 
 265    3:50   0.00   52.9    87    3.5   123     7.2   99999.0    0.00 
 265    4:00   0.00   53.1    86    2.4   115     5.4   99999.0    0.00 
 265    4:10   0.00   53.3    86    3.9   112     9.0   99999.0    0.00 
 265    4:20   0.00   53.4    86    3.0   129     9.0   99999.0    0.00 

Return to Cebollita Spring, Valles Caldera graphs page.


Western Regional Climate Center,wrcc@dri.edu